sensor_id;sensor_type;location;lat;lon;timestamp;temperature;humidity
69084;SHT31;56185;48.526;9.044;2023-07-13T00:01:45;21.24;64.42
69084;SHT31;56185;48.526;9.044;2023-07-13T00:04:10;21.31;63.95
69084;SHT31;56185;48.526;9.044;2023-07-13T00:06:35;21.22;63.20
69084;SHT31;56185;48.526;9.044;2023-07-13T00:09:01;21.09;63.61
69084;SHT31;56185;48.526;9.044;2023-07-13T00:11:27;21.08;63.28
69084;SHT31;56185;48.526;9.044;2023-07-13T00:13:52;21.26;63.40
69084;SHT31;56185;48.526;9.044;2023-07-13T00:16:18;21.32;62.03
69084;SHT31;56185;48.526;9.044;2023-07-13T00:18:43;21.33;61.53
69084;SHT31;56185;48.526;9.044;2023-07-13T00:21:08;21.53;60.80
69084;SHT31;56185;48.526;9.044;2023-07-13T00:23:35;21.69;60.20
69084;SHT31;56185;48.526;9.044;2023-07-13T00:26:07;21.74;59.73
69084;SHT31;56185;48.526;9.044;2023-07-13T00:28:33;21.89;58.96
69084;SHT31;56185;48.526;9.044;2023-07-13T00:30:58;21.87;59.53
69084;SHT31;56185;48.526;9.044;2023-07-13T00:33:24;21.76;59.90
69084;SHT31;56185;48.526;9.044;2023-07-13T00:35:49;21.90;59.78
69084;SHT31;56185;48.526;9.044;2023-07-13T00:38:15;21.86;61.20
69084;SHT31;56185;48.526;9.044;2023-07-13T00:40:40;21.89;61.84
69084;SHT31;56185;48.526;9.044;2023-07-13T00:43:18;21.87;61.17
69084;SHT31;56185;48.526;9.044;2023-07-13T00:48:10;21.60;63.23
69084;SHT31;56185;48.526;9.044;2023-07-13T00:50:37;21.43;63.09
69084;SHT31;56185;48.526;9.044;2023-07-13T00:53:03;21.49;63.46
69084;SHT31;56185;48.526;9.044;2023-07-13T00:55:28;21.35;64.16
69084;SHT31;56185;48.526;9.044;2023-07-13T00:57:54;21.46;63.85
69084;SHT31;56185;48.526;9.044;2023-07-13T01:00:22;21.21;63.90
69084;SHT31;56185;48.526;9.044;2023-07-13T01:02:48;21.12;64.44
69084;SHT31;56185;48.526;9.044;2023-07-13T01:05:19;21.11;63.89
69084;SHT31;56185;48.526;9.044;2023-07-13T01:07:46;21.18;62.77
69084;SHT31;56185;48.526;9.044;2023-07-13T01:10:13;21.22;62.90
69084;SHT31;56185;48.526;9.044;2023-07-13T01:12:40;21.31;62.76
69084;SHT31;56185;48.526;9.044;2023-07-13T01:15:32;21.24;62.55
69084;SHT31;56185;48.526;9.044;2023-07-13T01:17:51;21.14;63.56
69084;SHT31;56185;48.526;9.044;2023-07-13T01:20:16;21.21;63.00
69084;SHT31;56185;48.526;9.044;2023-07-13T01:22:41;21.14;63.40
69084;SHT31;56185;48.526;9.044;2023-07-13T01:25:07;21.09;62.68
69084;SHT31;56185;48.526;9.044;2023-07-13T01:27:32;21.01;63.89
69084;SHT31;56185;48.526;9.044;2023-07-13T01:29:57;20.84;64.30
69084;SHT31;56185;48.526;9.044;2023-07-13T01:32:23;20.84;63.15
69084;SHT31;56185;48.526;9.044;2023-07-13T01:34:53;20.70;62.91
69084;SHT31;56185;48.526;9.044;2023-07-13T01:37:18;20.70;62.93
69084;SHT31;56185;48.526;9.044;2023-07-13T01:39:43;20.58;62.81
69084;SHT31;56185;48.526;9.044;2023-07-13T01:42:09;20.56;63.09
69084;SHT31;56185;48.526;9.044;2023-07-13T01:44:34;20.54;62.81
69084;SHT31;56185;48.526;9.044;2023-07-13T01:47:00;20.63;62.89
69084;SHT31;56185;48.526;9.044;2023-07-13T01:49:27;20.68;62.60
69084;SHT31;56185;48.526;9.044;2023-07-13T01:51:52;20.66;63.78
69084;SHT31;56185;48.526;9.044;2023-07-13T01:54:17;20.64;64.03
69084;SHT31;56185;48.526;9.044;2023-07-13T01:56:42;20.50;64.68
69084;SHT31;56185;48.526;9.044;2023-07-13T01:59:09;20.17;66.35
69084;SHT31;56185;48.526;9.044;2023-07-13T02:01:34;20.12;66.03
69084;SHT31;56185;48.526;9.044;2023-07-13T02:04:00;19.72;67.23
69084;SHT31;56185;48.526;9.044;2023-07-13T02:06:25;19.53;68.52
69084;SHT31;56185;48.526;9.044;2023-07-13T02:08:50;19.47;66.06
69084;SHT31;56185;48.526;9.044;2023-07-13T02:11:16;19.41;65.44
69084;SHT31;56185;48.526;9.044;2023-07-13T02:13:41;19.21;66.20
69084;SHT31;56185;48.526;9.044;2023-07-13T02:16:06;19.14;65.78
69084;SHT31;56185;48.526;9.044;2023-07-13T02:18:32;19.13;66.55
69084;SHT31;56185;48.526;9.044;2023-07-13T02:20:57;19.20;65.86
69084;SHT31;56185;48.526;9.044;2023-07-13T02:23:22;19.18;65.53
69084;SHT31;56185;48.526;9.044;2023-07-13T02:25:48;19.07;67.07
69084;SHT31;56185;48.526;9.044;2023-07-13T02:28:14;19.11;67.11
69084;SHT31;56185;48.526;9.044;2023-07-13T02:30:39;18.90;67.69
69084;SHT31;56185;48.526;9.044;2023-07-13T02:33:05;18.79;68.18
69084;SHT31;56185;48.526;9.044;2023-07-13T02:35:31;18.76;67.35
69084;SHT31;56185;48.526;9.044;2023-07-13T02:37:56;18.76;67.86
69084;SHT31;56185;48.526;9.044;2023-07-13T02:40:22;18.65;66.97
69084;SHT31;56185;48.526;9.044;2023-07-13T02:42:48;18.66;67.49
69084;SHT31;56185;48.526;9.044;2023-07-13T02:45:13;18.56;67.28
69084;SHT31;56185;48.526;9.044;2023-07-13T02:47:40;18.39;68.60
69084;SHT31;56185;48.526;9.044;2023-07-13T02:50:06;18.56;67.56
69084;SHT31;56185;48.526;9.044;2023-07-13T02:52:31;18.53;67.89
69084;SHT31;56185;48.526;9.044;2023-07-13T02:54:56;18.58;67.07
69084;SHT31;56185;48.526;9.044;2023-07-13T02:57:22;18.48;68.32
69084;SHT31;56185;48.526;9.044;2023-07-13T02:59:47;18.39;68.21
69084;SHT31;56185;48.526;9.044;2023-07-13T03:02:12;18.42;68.29
69084;SHT31;56185;48.526;9.044;2023-07-13T03:04:37;18.34;68.22
69084;SHT31;56185;48.526;9.044;2023-07-13T03:07:04;18.75;67.82
69084;SHT31;56185;48.526;9.044;2023-07-13T03:09:29;18.73;68.52
69084;SHT31;56185;48.526;9.044;2023-07-13T03:11:55;18.69;69.02
69084;SHT31;56185;48.526;9.044;2023-07-13T03:14:21;18.80;68.69
69084;SHT31;56185;48.526;9.044;2023-07-13T03:16:47;18.82;68.45
69084;SHT31;56185;48.526;9.044;2023-07-13T03:19:12;18.51;69.83
69084;SHT31;56185;48.526;9.044;2023-07-13T03:21:38;18.48;70.24
69084;SHT31;56185;48.526;9.044;2023-07-13T03:24:04;18.47;69.16
69084;SHT31;56185;48.526;9.044;2023-07-13T03:26:29;18.39;68.91
69084;SHT31;56185;48.526;9.044;2023-07-13T03:28:54;18.34;69.37
69084;SHT31;56185;48.526;9.044;2023-07-13T03:31:24;18.25;69.37
69084;SHT31;56185;48.526;9.044;2023-07-13T03:33:51;18.17;69.52
69084;SHT31;56185;48.526;9.044;2023-07-13T03:36:19;18.39;68.87
69084;SHT31;56185;48.526;9.044;2023-07-13T03:38:49;18.63;68.29
69084;SHT31;56185;48.526;9.044;2023-07-13T03:41:15;18.63;67.92
69084;SHT31;56185;48.526;9.044;2023-07-13T03:43:41;18.53;67.53
69084;SHT31;56185;48.526;9.044;2023-07-13T03:46:06;18.49;68.00
69084;SHT31;56185;48.526;9.044;2023-07-13T03:48:31;18.51;68.60
69084;SHT31;56185;48.526;9.044;2023-07-13T03:50:56;18.65;67.89
69084;SHT31;56185;48.526;9.044;2023-07-13T03:53:22;18.76;67.52
69084;SHT31;56185;48.526;9.044;2023-07-13T03:55:47;18.79;67.54
69084;SHT31;56185;48.526;9.044;2023-07-13T03:58:33;18.76;67.40
69084;SHT31;56185;48.526;9.044;2023-07-13T04:01:01;18.82;67.10
69084;SHT31;56185;48.526;9.044;2023-07-13T04:03:27;18.77;67.64
69084;SHT31;56185;48.526;9.044;2023-07-13T04:05:54;18.83;67.74
69084;SHT31;56185;48.526;9.044;2023-07-13T04:08:19;18.82;66.74
69084;SHT31;56185;48.526;9.044;2023-07-13T04:10:45;18.85;67.17
69084;SHT31;56185;48.526;9.044;2023-07-13T04:13:12;18.89;66.96
69084;SHT31;56185;48.526;9.044;2023-07-13T04:15:39;18.77;66.90
69084;SHT31;56185;48.526;9.044;2023-07-13T04:18:05;18.83;67.07
69084;SHT31;56185;48.526;9.044;2023-07-13T04:20:30;18.77;67.32
69084;SHT31;56185;48.526;9.044;2023-07-13T04:22:56;18.70;67.08
69084;SHT31;56185;48.526;9.044;2023-07-13T04:25:21;18.72;67.12
69084;SHT31;56185;48.526;9.044;2023-07-13T04:27:46;18.70;67.26
69084;SHT31;56185;48.526;9.044;2023-07-13T04:30:12;18.82;67.50
69084;SHT31;56185;48.526;9.044;2023-07-13T04:32:38;18.85;66.86
69084;SHT31;56185;48.526;9.044;2023-07-13T04:35:04;18.77;67.17
69084;SHT31;56185;48.526;9.044;2023-07-13T04:37:29;18.76;66.97
69084;SHT31;56185;48.526;9.044;2023-07-13T04:39:55;18.68;67.78
69084;SHT31;56185;48.526;9.044;2023-07-13T04:42:20;18.77;67.59
69084;SHT31;56185;48.526;9.044;2023-07-13T04:44:49;18.70;68.22
69084;SHT31;56185;48.526;9.044;2023-07-13T04:47:15;18.76;67.40
69084;SHT31;56185;48.526;9.044;2023-07-13T04:49:40;18.77;67.36
69084;SHT31;56185;48.526;9.044;2023-07-13T04:52:06;18.83;67.17
69084;SHT31;56185;48.526;9.044;2023-07-13T04:54:32;18.96;67.31
69084;SHT31;56185;48.526;9.044;2023-07-13T04:56:57;18.90;66.91
69084;SHT31;56185;48.526;9.044;2023-07-13T04:59:23;18.89;67.09
69084;SHT31;56185;48.526;9.044;2023-07-13T05:01:49;18.86;67.47
69084;SHT31;56185;48.526;9.044;2023-07-13T05:04:14;18.80;66.96
69084;SHT31;56185;48.526;9.044;2023-07-13T05:06:39;18.77;67.06
69084;SHT31;56185;48.526;9.044;2023-07-13T05:09:04;18.93;66.81
69084;SHT31;56185;48.526;9.044;2023-07-13T05:11:30;18.92;66.62
69084;SHT31;56185;48.526;9.044;2023-07-13T05:13:56;18.87;67.25
69084;SHT31;56185;48.526;9.044;2023-07-13T05:16:21;19.04;67.70
69084;SHT31;56185;48.526;9.044;2023-07-13T05:18:46;19.13;67.60
69084;SHT31;56185;48.526;9.044;2023-07-13T05:21:12;19.13;66.86
69084;SHT31;56185;48.526;9.044;2023-07-13T05:23:37;19.00;67.00
69084;SHT31;56185;48.526;9.044;2023-07-13T05:26:03;18.99;68.44
69084;SHT31;56185;48.526;9.044;2023-07-13T05:28:30;19.07;66.87
69084;SHT31;56185;48.526;9.044;2023-07-13T05:30:57;19.00;67.08
69084;SHT31;56185;48.526;9.044;2023-07-13T05:33:23;19.09;66.32
69084;SHT31;56185;48.526;9.044;2023-07-13T05:35:48;19.03;66.21
69084;SHT31;56185;48.526;9.044;2023-07-13T05:38:13;19.09;65.71
69084;SHT31;56185;48.526;9.044;2023-07-13T05:40:39;18.96;65.32
69084;SHT31;56185;48.526;9.044;2023-07-13T05:43:04;19.06;65.46
69084;SHT31;56185;48.526;9.044;2023-07-13T05:45:29;19.10;65.71
69084;SHT31;56185;48.526;9.044;2023-07-13T05:47:55;18.96;65.80
69084;SHT31;56185;48.526;9.044;2023-07-13T05:50:20;19.14;66.33
69084;SHT31;56185;48.526;9.044;2023-07-13T05:52:45;19.06;66.01
69084;SHT31;56185;48.526;9.044;2023-07-13T05:55:10;19.09;65.95
69084;SHT31;56185;48.526;9.044;2023-07-13T05:57:36;19.14;66.23
69084;SHT31;56185;48.526;9.044;2023-07-13T06:00:01;19.24;65.59
69084;SHT31;56185;48.526;9.044;2023-07-13T06:02:27;19.31;65.84
69084;SHT31;56185;48.526;9.044;2023-07-13T06:04:53;19.39;65.05
69084;SHT31;56185;48.526;9.044;2023-07-13T06:07:18;19.37;64.95
69084;SHT31;56185;48.526;9.044;2023-07-13T06:09:43;19.43;64.69
69084;SHT31;56185;48.526;9.044;2023-07-13T06:12:10;19.46;65.01
69084;SHT31;56185;48.526;9.044;2023-07-13T06:14:35;19.50;64.51
69084;SHT31;56185;48.526;9.044;2023-07-13T06:17:00;19.58;64.92
69084;SHT31;56185;48.526;9.044;2023-07-13T06:19:25;19.55;64.46
69084;SHT31;56185;48.526;9.044;2023-07-13T06:21:51;19.61;64.32
69084;SHT31;56185;48.526;9.044;2023-07-13T06:24:16;19.64;64.88
69084;SHT31;56185;48.526;9.044;2023-07-13T06:26:41;19.61;63.56
69084;SHT31;56185;48.526;9.044;2023-07-13T06:29:07;19.61;64.24
69084;SHT31;56185;48.526;9.044;2023-07-13T06:31:32;19.54;64.75
69084;SHT31;56185;48.526;9.044;2023-07-13T06:33:57;19.64;64.90
69084;SHT31;56185;48.526;9.044;2023-07-13T06:36:22;19.71;64.79
69084;SHT31;56185;48.526;9.044;2023-07-13T06:38:48;19.82;65.09
69084;SHT31;56185;48.526;9.044;2023-07-13T06:41:13;19.82;65.36
69084;SHT31;56185;48.526;9.044;2023-07-13T06:43:38;19.79;64.85
69084;SHT31;56185;48.526;9.044;2023-07-13T06:46:04;19.93;64.31
69084;SHT31;56185;48.526;9.044;2023-07-13T06:48:29;19.98;64.10
69084;SHT31;56185;48.526;9.044;2023-07-13T06:50:54;19.99;63.45
69084;SHT31;56185;48.526;9.044;2023-07-13T06:53:20;20.05;63.04
69084;SHT31;56185;48.526;9.044;2023-07-13T06:55:46;20.09;62.76
69084;SHT31;56185;48.526;9.044;2023-07-13T06:58:11;20.09;62.56
69084;SHT31;56185;48.526;9.044;2023-07-13T07:00:37;20.19;61.57
69084;SHT31;56185;48.526;9.044;2023-07-13T07:03:02;20.26;60.53
69084;SHT31;56185;48.526;9.044;2023-07-13T07:05:28;20.19;59.19
69084;SHT31;56185;48.526;9.044;2023-07-13T07:07:54;20.34;60.78
69084;SHT31;56185;48.526;9.044;2023-07-13T07:10:20;20.46;55.83
69084;SHT31;56185;48.526;9.044;2023-07-13T07:12:46;20.46;54.44
69084;SHT31;56185;48.526;9.044;2023-07-13T07:15:12;20.51;55.68
69084;SHT31;56185;48.526;9.044;2023-07-13T07:17:37;20.66;53.41
69084;SHT31;56185;48.526;9.044;2023-07-13T07:20:02;20.73;52.89
69084;SHT31;56185;48.526;9.044;2023-07-13T07:22:28;20.70;52.78
69084;SHT31;56185;48.526;9.044;2023-07-13T07:24:53;20.74;53.51
69084;SHT31;56185;48.526;9.044;2023-07-13T07:27:20;20.74;52.58
69084;SHT31;56185;48.526;9.044;2023-07-13T07:29:45;20.88;51.75
69084;SHT31;56185;48.526;9.044;2023-07-13T07:32:10;20.96;50.52
69084;SHT31;56185;48.526;9.044;2023-07-13T07:34:35;21.04;50.65
69084;SHT31;56185;48.526;9.044;2023-07-13T07:37:02;21.15;51.07
69084;SHT31;56185;48.526;9.044;2023-07-13T07:39:27;21.19;50.99
69084;SHT31;56185;48.526;9.044;2023-07-13T07:41:53;21.26;50.04
69084;SHT31;56185;48.526;9.044;2023-07-13T07:44:18;21.32;50.41
69084;SHT31;56185;48.526;9.044;2023-07-13T07:46:49;21.38;49.81
69084;SHT31;56185;48.526;9.044;2023-07-13T07:49:14;21.42;50.52
69084;SHT31;56185;48.526;9.044;2023-07-13T07:51:39;21.41;48.51
69084;SHT31;56185;48.526;9.044;2023-07-13T07:54:05;21.50;49.00
69084;SHT31;56185;48.526;9.044;2023-07-13T07:56:31;21.55;47.89
69084;SHT31;56185;48.526;9.044;2023-07-13T07:58:57;21.60;46.60
69084;SHT31;56185;48.526;9.044;2023-07-13T08:01:22;21.62;47.79
69084;SHT31;56185;48.526;9.044;2023-07-13T08:03:48;21.59;47.61
69084;SHT31;56185;48.526;9.044;2023-07-13T08:06:13;21.70;48.83
69084;SHT31;56185;48.526;9.044;2023-07-13T08:08:38;21.77;45.91
69084;SHT31;56185;48.526;9.044;2023-07-13T08:11:06;21.74;45.59
69084;SHT31;56185;48.526;9.044;2023-07-13T08:13:31;21.83;44.57
69084;SHT31;56185;48.526;9.044;2023-07-13T08:15:56;21.83;46.27
69084;SHT31;56185;48.526;9.044;2023-07-13T08:18:21;21.97;45.26
69084;SHT31;56185;48.526;9.044;2023-07-13T08:20:47;22.03;44.29
69084;SHT31;56185;48.526;9.044;2023-07-13T08:23:12;22.04;44.33
69084;SHT31;56185;48.526;9.044;2023-07-13T08:25:37;21.94;45.01
69084;SHT31;56185;48.526;9.044;2023-07-13T08:28:03;22.08;44.55
69084;SHT31;56185;48.526;9.044;2023-07-13T08:30:29;22.24;45.18
69084;SHT31;56185;48.526;9.044;2023-07-13T08:32:55;22.30;44.11
69084;SHT31;56185;48.526;9.044;2023-07-13T08:35:20;22.37;45.16
69084;SHT31;56185;48.526;9.044;2023-07-13T08:37:46;22.47;44.41
69084;SHT31;56185;48.526;9.044;2023-07-13T08:40:12;22.47;43.44
69084;SHT31;56185;48.526;9.044;2023-07-13T08:43:01;22.56;43.63
69084;SHT31;56185;48.526;9.044;2023-07-13T08:45:43;22.73;43.41
69084;SHT31;56185;48.526;9.044;2023-07-13T08:48:37;22.85;43.41
69084;SHT31;56185;48.526;9.044;2023-07-13T08:54:00;22.98;43.25
69084;SHT31;56185;48.526;9.044;2023-07-13T08:56:28;23.04;42.62
69084;SHT31;56185;48.526;9.044;2023-07-13T08:59:00;23.12;42.45
69084;SHT31;56185;48.526;9.044;2023-07-13T09:01:52;23.30;42.77
69084;SHT31;56185;48.526;9.044;2023-07-13T09:04:22;23.40;42.81
69084;SHT31;56185;48.526;9.044;2023-07-13T09:06:59;23.50;42.01
69084;SHT31;56185;48.526;9.044;2023-07-13T09:12:14;23.65;41.70
69084;SHT31;56185;48.526;9.044;2023-07-13T09:14:51;23.65;41.91
69084;SHT31;56185;48.526;9.044;2023-07-13T09:17:29;23.75;41.10
69084;SHT31;56185;48.526;9.044;2023-07-13T09:20:04;23.72;41.00
69084;SHT31;56185;48.526;9.044;2023-07-13T09:22:34;23.77;39.86
69084;SHT31;56185;48.526;9.044;2023-07-13T09:25:21;23.77;41.18
69084;SHT31;56185;48.526;9.044;2023-07-13T09:27:53;23.89;39.67
69084;SHT31;56185;48.526;9.044;2023-07-13T09:30:30;24.01;38.65
69084;SHT31;56185;48.526;9.044;2023-07-13T09:32:57;24.06;39.69
69084;SHT31;56185;48.526;9.044;2023-07-13T09:35:25;24.20;38.62
69084;SHT31;56185;48.526;9.044;2023-07-13T09:37:56;24.29;38.34
69084;SHT31;56185;48.526;9.044;2023-07-13T09:40:32;24.32;38.27
69084;SHT31;56185;48.526;9.044;2023-07-13T09:43:01;24.32;38.36
69084;SHT31;56185;48.526;9.044;2023-07-13T09:45:28;24.35;37.54
69084;SHT31;56185;48.526;9.044;2023-07-13T09:48:14;24.35;39.33
69084;SHT31;56185;48.526;9.044;2023-07-13T09:50:40;24.26;37.76
69084;SHT31;56185;48.526;9.044;2023-07-13T09:53:20;24.18;38.52
69084;SHT31;56185;48.526;9.044;2023-07-13T09:55:47;23.95;38.18
69084;SHT31;56185;48.526;9.044;2023-07-13T09:58:19;24.12;38.16
69084;SHT31;56185;48.526;9.044;2023-07-13T10:00:59;24.02;38.84
69084;SHT31;56185;48.526;9.044;2023-07-13T10:03:29;24.02;39.67
69084;SHT31;56185;48.526;9.044;2023-07-13T10:06:01;24.26;38.84
69084;SHT31;56185;48.526;9.044;2023-07-13T10:08:30;24.36;36.95
69084;SHT31;56185;48.526;9.044;2023-07-13T10:13:33;24.52;38.77
69084;SHT31;56185;48.526;9.044;2023-07-13T10:15:59;24.49;36.59
69084;SHT31;56185;48.526;9.044;2023-07-13T10:18:25;24.49;37.46
69084;SHT31;56185;48.526;9.044;2023-07-13T10:21:11;24.26;36.47
69084;SHT31;56185;48.526;9.044;2023-07-13T10:23:37;24.55;37.10
69084;SHT31;56185;48.526;9.044;2023-07-13T10:26:03;24.63;37.31
69084;SHT31;56185;48.526;9.044;2023-07-13T10:28:35;24.63;36.98
69084;SHT31;56185;48.526;9.044;2023-07-13T10:31:02;24.73;36.65
69084;SHT31;56185;48.526;9.044;2023-07-13T10:33:29;24.70;38.41
69084;SHT31;56185;48.526;9.044;2023-07-13T10:36:03;24.49;36.61
69084;SHT31;56185;48.526;9.044;2023-07-13T10:38:31;24.63;37.74
69084;SHT31;56185;48.526;9.044;2023-07-13T10:41:01;24.81;38.23
69084;SHT31;56185;48.526;9.044;2023-07-13T10:43:33;24.84;37.45
69084;SHT31;56185;48.526;9.044;2023-07-13T10:45:59;24.92;37.12
69084;SHT31;56185;48.526;9.044;2023-07-13T10:48:25;24.94;36.42
69084;SHT31;56185;48.526;9.044;2023-07-13T10:50:53;24.94;37.12
69084;SHT31;56185;48.526;9.044;2023-07-13T10:53:27;24.95;37.74
69084;SHT31;56185;48.526;9.044;2023-07-13T11:01:04;25.19;37.01
69084;SHT31;56185;48.526;9.044;2023-07-13T11:03:35;25.34;37.35
69084;SHT31;56185;48.526;9.044;2023-07-13T11:06:09;25.48;37.72
69084;SHT31;56185;48.526;9.044;2023-07-13T11:08:38;25.55;37.56
69084;SHT31;56185;48.526;9.044;2023-07-13T11:11:35;25.32;36.96
69084;SHT31;56185;48.526;9.044;2023-07-13T11:14:02;25.50;37.28
69084;SHT31;56185;48.526;9.044;2023-07-13T11:16:44;25.63;36.95
69084;SHT31;56185;48.526;9.044;2023-07-13T11:22:10;25.43;35.59
69084;SHT31;56185;48.526;9.044;2023-07-13T11:24:50;25.48;36.47
69084;SHT31;56185;48.526;9.044;2023-07-13T11:27:34;25.62;36.46
69084;SHT31;56185;48.526;9.044;2023-07-13T11:32:44;25.82;36.46
69084;SHT31;56185;48.526;9.044;2023-07-13T11:35:21;25.97;35.62
69084;SHT31;56185;48.526;9.044;2023-07-13T11:37:47;26.08;36.38
69084;SHT31;56185;48.526;9.044;2023-07-13T11:40:14;26.18;34.16
69084;SHT31;56185;48.526;9.044;2023-07-13T11:42:39;26.37;35.31
69084;SHT31;56185;48.526;9.044;2023-07-13T11:45:19;26.55;34.97
69084;SHT31;56185;48.526;9.044;2023-07-13T11:47:45;26.67;33.50
69084;SHT31;56185;48.526;9.044;2023-07-13T11:50:22;26.71;34.02
69084;SHT31;56185;48.526;9.044;2023-07-13T11:52:49;26.78;32.97
69084;SHT31;56185;48.526;9.044;2023-07-13T11:55:17;26.86;32.66
69084;SHT31;56185;48.526;9.044;2023-07-13T11:57:50;26.71;32.23
69084;SHT31;56185;48.526;9.044;2023-07-13T12:00:25;26.89;31.71
69084;SHT31;56185;48.526;9.044;2023-07-13T12:02:53;26.86;32.57
69084;SHT31;56185;48.526;9.044;2023-07-13T12:05:20;26.84;31.93
69084;SHT31;56185;48.526;9.044;2023-07-13T12:07:46;26.79;32.86
69084;SHT31;56185;48.526;9.044;2023-07-13T12:10:19;26.89;31.11
69084;SHT31;56185;48.526;9.044;2023-07-13T12:13:08;26.99;31.90
69084;SHT31;56185;48.526;9.044;2023-07-13T12:15:38;27.13;31.98
69084;SHT31;56185;48.526;9.044;2023-07-13T12:18:16;27.03;31.90
69084;SHT31;56185;48.526;9.044;2023-07-13T12:20:44;27.09;32.23
69084;SHT31;56185;48.526;9.044;2023-07-13T12:25:49;27.23;29.36
69084;SHT31;56185;48.526;9.044;2023-07-13T12:28:35;27.23;31.07
69084;SHT31;56185;48.526;9.044;2023-07-13T12:31:03;27.27;32.20
69084;SHT31;56185;48.526;9.044;2023-07-13T12:33:30;27.42;31.89
69084;SHT31;56185;48.526;9.044;2023-07-13T12:35:55;27.63;30.32
69084;SHT31;56185;48.526;9.044;2023-07-13T12:38:21;27.57;30.00
69084;SHT31;56185;48.526;9.044;2023-07-13T12:40:50;27.44;30.05
69084;SHT31;56185;48.526;9.044;2023-07-13T12:43:16;27.76;29.81
69084;SHT31;56185;48.526;9.044;2023-07-13T12:46:05;27.88;29.70
69084;SHT31;56185;48.526;9.044;2023-07-13T12:48:41;27.94;30.50
69084;SHT31;56185;48.526;9.044;2023-07-13T12:51:13;28.01;30.44
69084;SHT31;56185;48.526;9.044;2023-07-13T12:53:42;27.98;30.78
69084;SHT31;56185;48.526;9.044;2023-07-13T12:56:15;28.06;29.94
69084;SHT31;56185;48.526;9.044;2023-07-13T12:58:43;28.25;29.50
69084;SHT31;56185;48.526;9.044;2023-07-13T13:01:10;28.36;28.45
69084;SHT31;56185;48.526;9.044;2023-07-13T13:06:05;28.48;28.93
69084;SHT31;56185;48.526;9.044;2023-07-13T13:08:33;28.67;28.28
69084;SHT31;56185;48.526;9.044;2023-07-13T13:10:59;28.74;28.00
69084;SHT31;56185;48.526;9.044;2023-07-13T13:13:24;28.83;27.09
69084;SHT31;56185;48.526;9.044;2023-07-13T13:15:50;28.67;28.35
69084;SHT31;56185;48.526;9.044;2023-07-13T13:18:19;28.57;28.67
69084;SHT31;56185;48.526;9.044;2023-07-13T13:20:46;28.43;28.17
69084;SHT31;56185;48.526;9.044;2023-07-13T13:23:17;28.25;28.83
69084;SHT31;56185;48.526;9.044;2023-07-13T13:25:47;27.91;28.37
69084;SHT31;56185;48.526;9.044;2023-07-13T13:28:19;27.91;29.25
69084;SHT31;56185;48.526;9.044;2023-07-13T13:30:46;27.84;29.24
69084;SHT31;56185;48.526;9.044;2023-07-13T13:33:13;27.67;29.22
69084;SHT31;56185;48.526;9.044;2023-07-13T13:35:38;27.92;29.80
69084;SHT31;56185;48.526;9.044;2023-07-13T13:38:25;28.12;28.92
69084;SHT31;56185;48.526;9.044;2023-07-13T13:40:50;28.28;30.04
69084;SHT31;56185;48.526;9.044;2023-07-13T13:43:17;28.45;30.05
69084;SHT31;56185;48.526;9.044;2023-07-13T13:45:44;28.63;29.61
69084;SHT31;56185;48.526;9.044;2023-07-13T13:48:15;28.79;28.11
69084;SHT31;56185;48.526;9.044;2023-07-13T13:50:42;28.86;29.20
69084;SHT31;56185;48.526;9.044;2023-07-13T13:53:10;28.99;28.21
69084;SHT31;56185;48.526;9.044;2023-07-13T13:55:35;29.12;28.59
69084;SHT31;56185;48.526;9.044;2023-07-13T13:58:01;29.28;27.37
69084;SHT31;56185;48.526;9.044;2023-07-13T14:00:26;29.35;26.87
69084;SHT31;56185;48.526;9.044;2023-07-13T14:02:51;29.51;26.67
69084;SHT31;56185;48.526;9.044;2023-07-13T14:05:25;29.38;25.54
69084;SHT31;56185;48.526;9.044;2023-07-13T14:07:50;29.32;26.19
69084;SHT31;56185;48.526;9.044;2023-07-13T14:10:18;29.22;27.05
69084;SHT31;56185;48.526;9.044;2023-07-13T14:12:44;29.20;27.07
69084;SHT31;56185;48.526;9.044;2023-07-13T14:15:20;29.24;27.16
69084;SHT31;56185;48.526;9.044;2023-07-13T14:17:45;29.38;27.95
69084;SHT31;56185;48.526;9.044;2023-07-13T14:20:14;29.55;26.37
69084;SHT31;56185;48.526;9.044;2023-07-13T14:22:39;29.44;27.44
69084;SHT31;56185;48.526;9.044;2023-07-13T14:25:04;29.24;28.09
69084;SHT31;56185;48.526;9.044;2023-07-13T14:27:30;29.01;27.55
69084;SHT31;56185;48.526;9.044;2023-07-13T14:29:55;29.07;27.16
69084;SHT31;56185;48.526;9.044;2023-07-13T14:32:20;29.28;27.30
69084;SHT31;56185;48.526;9.044;2023-07-13T14:34:49;29.31;26.60
69084;SHT31;56185;48.526;9.044;2023-07-13T14:37:15;28.89;26.84
69084;SHT31;56185;48.526;9.044;2023-07-13T14:39:43;28.87;28.43
69084;SHT31;56185;48.526;9.044;2023-07-13T14:42:09;28.73;26.61
69084;SHT31;56185;48.526;9.044;2023-07-13T14:44:35;28.42;27.60
69084;SHT31;56185;48.526;9.044;2023-07-13T14:47:03;28.59;28.69
69084;SHT31;56185;48.526;9.044;2023-07-13T14:49:32;28.46;27.89
69084;SHT31;56185;48.526;9.044;2023-07-13T14:52:01;28.42;29.25
69084;SHT31;56185;48.526;9.044;2023-07-13T14:54:27;28.45;29.58
69084;SHT31;56185;48.526;9.044;2023-07-13T14:56:52;28.36;28.57
69084;SHT31;56185;48.526;9.044;2023-07-13T14:59:19;28.60;28.79
69084;SHT31;56185;48.526;9.044;2023-07-13T15:01:45;28.76;28.07
69084;SHT31;56185;48.526;9.044;2023-07-13T15:04:11;28.94;27.76
69084;SHT31;56185;48.526;9.044;2023-07-13T15:06:56;29.11;26.46
69084;SHT31;56185;48.526;9.044;2023-07-13T15:09:21;29.11;27.54
69084;SHT31;56185;48.526;9.044;2023-07-13T15:11:46;29.20;28.42
69084;SHT31;56185;48.526;9.044;2023-07-13T15:14:12;29.14;28.61
69084;SHT31;56185;48.526;9.044;2023-07-13T15:16:37;29.17;29.05
69084;SHT31;56185;48.526;9.044;2023-07-13T15:19:02;29.21;28.48
69084;SHT31;56185;48.526;9.044;2023-07-13T15:21:28;29.32;28.79
69084;SHT31;56185;48.526;9.044;2023-07-13T15:23:53;29.15;28.76
69084;SHT31;56185;48.526;9.044;2023-07-13T15:26:19;29.21;28.73
69084;SHT31;56185;48.526;9.044;2023-07-13T15:28:45;29.28;28.79
69084;SHT31;56185;48.526;9.044;2023-07-13T15:33:43;29.28;29.96
69084;SHT31;56185;48.526;9.044;2023-07-13T15:36:09;29.34;29.99
69084;SHT31;56185;48.526;9.044;2023-07-13T15:38:35;29.28;29.84
69084;SHT31;56185;48.526;9.044;2023-07-13T15:41:01;29.08;29.62
69084;SHT31;56185;48.526;9.044;2023-07-13T15:43:26;29.06;30.75
69084;SHT31;56185;48.526;9.044;2023-07-13T15:45:51;29.07;30.54
69084;SHT31;56185;48.526;9.044;2023-07-13T15:48:23;29.10;29.91
69084;SHT31;56185;48.526;9.044;2023-07-13T15:50:52;29.01;29.44
69084;SHT31;56185;48.526;9.044;2023-07-13T15:53:23;28.86;29.62
69084;SHT31;56185;48.526;9.044;2023-07-13T15:55:49;28.86;30.73
69084;SHT31;56185;48.526;9.044;2023-07-13T15:58:15;28.96;31.69
69084;SHT31;56185;48.526;9.044;2023-07-13T16:00:40;28.80;30.95
69084;SHT31;56185;48.526;9.044;2023-07-13T16:03:05;28.63;31.08